Parkersburg, Iowa
Current Conditions -  °F | °C
As of 1:54 PM on Saturday 20 Dec 2014 (Local Time) from KALO Reporting Station
Haze Haze  
Wind Chill: 26°   Ceiling: 700
Heat Index: 32°   Visibility: 3mi
Dew Point: 31°   Wind: 6mph
Humidity: 96%   Direction: 180°S
Pressure: 30.15"   Gusts: NA
Location:  42.58°N, 92.79°W
Report Text: KALO 201954Z 18005KT 3SM BR OVC007 00/M01 A3015 RMK AO2 SLP219 T00001006
Loading
Personal Weather Stations






























Interactive Weather Map New forecast layout! Learn more

10-Day Weather Forecast

Advertisements
Track Severe Weather on mobile